sensor_id;sensor_type;location;lat;lon;timestamp;P1;durP1;ratioP1;P2;durP2;ratioP2
52266;SDS011;38223;50.940;4.034;2023-03-11T00:01:54;10.30;;;1.70;;
52266;SDS011;38223;50.940;4.034;2023-03-11T00:04:26;4.55;;;1.72;;
52266;SDS011;38223;50.940;4.034;2023-03-11T00:07:02;6.42;;;2.25;;
52266;SDS011;38223;50.940;4.034;2023-03-11T00:09:32;11.33;;;2.00;;
52266;SDS011;38223;50.940;4.034;2023-03-11T00:12:05;4.78;;;1.55;;
52266;SDS011;38223;50.940;4.034;2023-03-11T00:14:37;5.08;;;1.60;;
52266;SDS011;38223;50.940;4.034;2023-03-11T00:17:10;8.25;;;1.87;;
52266;SDS011;38223;50.940;4.034;2023-03-11T00:19:43;4.50;;;2.00;;
52266;SDS011;38223;50.940;4.034;2023-03-11T00:22:13;7.67;;;2.00;;
52266;SDS011;38223;50.940;4.034;2023-03-11T00:24:50;9.25;;;1.90;;
52266;SDS011;38223;50.940;4.034;2023-03-11T00:27:20;8.15;;;1.62;;
52266;SDS011;38223;50.940;4.034;2023-03-11T00:29:54;6.47;;;2.00;;
52266;SDS011;38223;50.940;4.034;2023-03-11T00:32:24;6.92;;;2.00;;
52266;SDS011;38223;50.940;4.034;2023-03-11T00:34:54;5.40;;;1.80;;
52266;SDS011;38223;50.940;4.034;2023-03-11T00:37:25;4.62;;;1.90;;
52266;SDS011;38223;50.940;4.034;2023-03-11T00:39:57;6.08;;;2.05;;
52266;SDS011;38223;50.940;4.034;2023-03-11T00:42:27;8.65;;;2.47;;
52266;SDS011;38223;50.940;4.034;2023-03-11T00:44:58;5.67;;;2.05;;
52266;SDS011;38223;50.940;4.034;2023-03-11T00:47:29;9.75;;;2.33;;
52266;SDS011;38223;50.940;4.034;2023-03-11T00:50:02;8.60;;;2.42;;
52266;SDS011;38223;50.940;4.034;2023-03-11T00:52:32;12.90;;;2.58;;
52266;SDS011;38223;50.940;4.034;2023-03-11T00:55:04;12.35;;;2.98;;
52266;SDS011;38223;50.940;4.034;2023-03-11T00:57:34;6.42;;;2.10;;
52266;SDS011;38223;50.940;4.034;2023-03-11T01:00:07;4.12;;;2.20;;
52266;SDS011;38223;50.940;4.034;2023-03-11T01:02:43;9.00;;;2.75;;
52266;SDS011;38223;50.940;4.034;2023-03-11T01:05:18;5.08;;;2.12;;
52266;SDS011;38223;50.940;4.034;2023-03-11T01:07:52;6.22;;;2.60;;
52266;SDS011;38223;50.940;4.034;2023-03-11T01:10:26;8.58;;;2.95;;
52266;SDS011;38223;50.940;4.034;2023-03-11T01:12:57;7.15;;;3.10;;
52266;SDS011;38223;50.940;4.034;2023-03-11T01:15:34;6.83;;;3.15;;
52266;SDS011;38223;50.940;4.034;2023-03-11T01:18:04;6.45;;;3.00;;
52266;SDS011;38223;50.940;4.034;2023-03-11T01:20:40;9.50;;;3.10;;
52266;SDS011;38223;50.940;4.034;2023-03-11T01:23:15;8.48;;;2.62;;
52266;SDS011;38223;50.940;4.034;2023-03-11T01:25:47;8.40;;;2.98;;
52266;SDS011;38223;50.940;4.034;2023-03-11T01:28:21;17.98;;;3.95;;
52266;SDS011;38223;50.940;4.034;2023-03-11T01:30:50;10.23;;;3.67;;
52266;SDS011;38223;50.940;4.034;2023-03-11T01:33:24;8.68;;;3.37;;
52266;SDS011;38223;50.940;4.034;2023-03-11T01:35:54;6.35;;;3.42;;
52266;SDS011;38223;50.940;4.034;2023-03-11T01:38:27;11.38;;;3.00;;
52266;SDS011;38223;50.940;4.034;2023-03-11T01:40:58;6.75;;;3.27;;
52266;SDS011;38223;50.940;4.034;2023-03-11T01:49:01;7.40;;;4.05;;
52266;SDS011;38223;50.940;4.034;2023-03-11T01:51:36;10.80;;;3.33;;
52266;SDS011;38223;50.940;4.034;2023-03-11T01:54:23;7.70;;;3.30;;
52266;SDS011;38223;50.940;4.034;2023-03-11T01:59:32;8.13;;;2.85;;
52266;SDS011;38223;50.940;4.034;2023-03-11T02:02:08;10.63;;;2.95;;
52266;SDS011;38223;50.940;4.034;2023-03-11T02:04:52;7.53;;;2.70;;
52266;SDS011;38223;50.940;4.034;2023-03-11T02:07:25;8.08;;;3.35;;
52266;SDS011;38223;50.940;4.034;2023-03-11T02:09:59;8.98;;;3.98;;
52266;SDS011;38223;50.940;4.034;2023-03-11T02:12:32;6.15;;;3.22;;
52266;SDS011;38223;50.940;4.034;2023-03-11T02:15:05;6.47;;;3.60;;
52266;SDS011;38223;50.940;4.034;2023-03-11T02:17:40;12.28;;;3.50;;
52266;SDS011;38223;50.940;4.034;2023-03-11T02:22:48;12.85;;;4.47;;
52266;SDS011;38223;50.940;4.034;2023-03-11T02:25:33;12.03;;;3.42;;
52266;SDS011;38223;50.940;4.034;2023-03-11T02:28:08;13.30;;;4.03;;
52266;SDS011;38223;50.940;4.034;2023-03-11T02:30:40;7.17;;;3.55;;
52266;SDS011;38223;50.940;4.034;2023-03-11T02:33:12;15.70;;;4.25;;
52266;SDS011;38223;50.940;4.034;2023-03-11T02:35:47;8.98;;;3.40;;
52266;SDS011;38223;50.940;4.034;2023-03-11T02:38:17;8.75;;;3.37;;
52266;SDS011;38223;50.940;4.034;2023-03-11T02:46:10;9.48;;;3.85;;
52266;SDS011;38223;50.940;4.034;2023-03-11T02:48:42;6.62;;;2.45;;
52266;SDS011;38223;50.940;4.034;2023-03-11T02:51:18;8.08;;;2.42;;
52266;SDS011;38223;50.940;4.034;2023-03-11T02:53:49;8.80;;;3.05;;
52266;SDS011;38223;50.940;4.034;2023-03-11T02:56:19;10.45;;;2.50;;
52266;SDS011;38223;50.940;4.034;2023-03-11T02:58:50;4.28;;;2.25;;
52266;SDS011;38223;50.940;4.034;2023-03-11T03:01:19;6.62;;;2.08;;
52266;SDS011;38223;50.940;4.034;2023-03-11T03:03:50;8.23;;;3.47;;
52266;SDS011;38223;50.940;4.034;2023-03-11T03:06:20;9.53;;;3.02;;
52266;SDS011;38223;50.940;4.034;2023-03-11T03:08:50;10.33;;;2.77;;
52266;SDS011;38223;50.940;4.034;2023-03-11T03:11:22;6.17;;;2.15;;
52266;SDS011;38223;50.940;4.034;2023-03-11T03:13:51;9.08;;;2.50;;
52266;SDS011;38223;50.940;4.034;2023-03-11T03:16:24;7.45;;;2.33;;
52266;SDS011;38223;50.940;4.034;2023-03-11T03:19:13;7.08;;;2.40;;
52266;SDS011;38223;50.940;4.034;2023-03-11T03:21:47;7.50;;;2.15;;
52266;SDS011;38223;50.940;4.034;2023-03-11T03:24:18;6.42;;;2.35;;
52266;SDS011;38223;50.940;4.034;2023-03-11T03:26:49;3.42;;;2.15;;
52266;SDS011;38223;50.940;4.034;2023-03-11T03:29:23;4.15;;;2.00;;
52266;SDS011;38223;50.940;4.034;2023-03-11T03:31:52;6.03;;;2.40;;
52266;SDS011;38223;50.940;4.034;2023-03-11T03:34:26;4.80;;;1.87;;
52266;SDS011;38223;50.940;4.034;2023-03-11T03:36:57;6.35;;;1.80;;
52266;SDS011;38223;50.940;4.034;2023-03-11T03:39:27;5.22;;;2.20;;
52266;SDS011;38223;50.940;4.034;2023-03-11T03:41:58;7.35;;;2.10;;
52266;SDS011;38223;50.940;4.034;2023-03-11T03:44:28;4.25;;;1.90;;
52266;SDS011;38223;50.940;4.034;2023-03-11T03:46:59;3.77;;;2.17;;
52266;SDS011;38223;50.940;4.034;2023-03-11T03:49:26;8.30;;;2.17;;
52266;SDS011;38223;50.940;4.034;2023-03-11T03:52:00;3.62;;;2.30;;
52266;SDS011;38223;50.940;4.034;2023-03-11T03:54:28;6.05;;;2.30;;
52266;SDS011;38223;50.940;4.034;2023-03-11T03:56:59;5.23;;;1.80;;
52266;SDS011;38223;50.940;4.034;2023-03-11T03:59:30;4.12;;;1.70;;
52266;SDS011;38223;50.940;4.034;2023-03-11T04:02:04;5.47;;;2.30;;
52266;SDS011;38223;50.940;4.034;2023-03-11T04:04:35;3.62;;;1.50;;
52266;SDS011;38223;50.940;4.034;2023-03-11T04:07:09;8.15;;;2.47;;
52266;SDS011;38223;50.940;4.034;2023-03-11T04:09:41;7.22;;;2.33;;
52266;SDS011;38223;50.940;4.034;2023-03-11T04:12:26;4.37;;;2.20;;
52266;SDS011;38223;50.940;4.034;2023-03-11T04:15:00;8.05;;;1.90;;
52266;SDS011;38223;50.940;4.034;2023-03-11T04:17:31;4.83;;;1.75;;
52266;SDS011;38223;50.940;4.034;2023-03-11T04:20:03;6.55;;;2.35;;
52266;SDS011;38223;50.940;4.034;2023-03-11T04:22:37;7.47;;;2.58;;
52266;SDS011;38223;50.940;4.034;2023-03-11T04:25:07;6.05;;;2.22;;
52266;SDS011;38223;50.940;4.034;2023-03-11T04:27:43;7.00;;;2.33;;
52266;SDS011;38223;50.940;4.034;2023-03-11T04:30:13;5.05;;;2.15;;
52266;SDS011;38223;50.940;4.034;2023-03-11T04:32:44;5.65;;;2.27;;
52266;SDS011;38223;50.940;4.034;2023-03-11T04:35:13;9.80;;;2.33;;
52266;SDS011;38223;50.940;4.034;2023-03-11T04:37:45;3.80;;;1.77;;
52266;SDS011;38223;50.940;4.034;2023-03-11T04:40:20;8.85;;;2.77;;
52266;SDS011;38223;50.940;4.034;2023-03-11T04:42:49;7.30;;;2.20;;
52266;SDS011;38223;50.940;4.034;2023-03-11T04:45:19;6.60;;;2.22;;
52266;SDS011;38223;50.940;4.034;2023-03-11T04:50:21;6.42;;;2.12;;
52266;SDS011;38223;50.940;4.034;2023-03-11T04:52:51;10.78;;;2.80;;
52266;SDS011;38223;50.940;4.034;2023-03-11T04:55:25;6.42;;;2.08;;
52266;SDS011;38223;50.940;4.034;2023-03-11T04:57:56;7.03;;;2.20;;
52266;SDS011;38223;50.940;4.034;2023-03-11T05:00:28;6.60;;;1.87;;
52266;SDS011;38223;50.940;4.034;2023-03-11T05:02:58;6.05;;;2.12;;
52266;SDS011;38223;50.940;4.034;2023-03-11T05:05:32;6.85;;;2.20;;
52266;SDS011;38223;50.940;4.034;2023-03-11T05:08:00;8.53;;;2.08;;
52266;SDS011;38223;50.940;4.034;2023-03-11T05:10:29;7.47;;;2.37;;
52266;SDS011;38223;50.940;4.034;2023-03-11T05:15:29;6.83;;;2.15;;
52266;SDS011;38223;50.940;4.034;2023-03-11T05:18:03;7.47;;;2.40;;
52266;SDS011;38223;50.940;4.034;2023-03-11T05:20:34;6.35;;;2.20;;
52266;SDS011;38223;50.940;4.034;2023-03-11T05:23:07;5.92;;;2.70;;
52266;SDS011;38223;50.940;4.034;2023-03-11T05:25:38;7.87;;;2.98;;
52266;SDS011;38223;50.940;4.034;2023-03-11T05:28:12;9.05;;;3.12;;
52266;SDS011;38223;50.940;4.034;2023-03-11T05:30:46;7.45;;;2.72;;
52266;SDS011;38223;50.940;4.034;2023-03-11T05:36:04;6.10;;;2.90;;
52266;SDS011;38223;50.940;4.034;2023-03-11T05:38:40;7.53;;;2.90;;
52266;SDS011;38223;50.940;4.034;2023-03-11T05:41:11;5.28;;;2.90;;
52266;SDS011;38223;50.940;4.034;2023-03-11T05:43:42;5.95;;;3.05;;
52266;SDS011;38223;50.940;4.034;2023-03-11T05:46:14;7.30;;;3.12;;
52266;SDS011;38223;50.940;4.034;2023-03-11T05:48:45;6.25;;;3.02;;
52266;SDS011;38223;50.940;4.034;2023-03-11T05:51:15;6.67;;;3.17;;
52266;SDS011;38223;50.940;4.034;2023-03-11T05:53:46;6.72;;;3.27;;
52266;SDS011;38223;50.940;4.034;2023-03-11T05:56:18;7.72;;;3.22;;
52266;SDS011;38223;50.940;4.034;2023-03-11T05:58:50;6.75;;;3.60;;
52266;SDS011;38223;50.940;4.034;2023-03-11T06:01:23;5.75;;;3.85;;
52266;SDS011;38223;50.940;4.034;2023-03-11T06:03:58;14.80;;;3.72;;
52266;SDS011;38223;50.940;4.034;2023-03-11T06:06:28;10.75;;;3.37;;
52266;SDS011;38223;50.940;4.034;2023-03-11T06:09:01;10.95;;;4.30;;
52266;SDS011;38223;50.940;4.034;2023-03-11T06:11:49;10.03;;;3.52;;
52266;SDS011;38223;50.940;4.034;2023-03-11T06:14:21;10.20;;;3.50;;
52266;SDS011;38223;50.940;4.034;2023-03-11T06:16:54;10.00;;;3.87;;
52266;SDS011;38223;50.940;4.034;2023-03-11T06:19:24;9.05;;;3.77;;
52266;SDS011;38223;50.940;4.034;2023-03-11T06:21:56;9.60;;;3.80;;
52266;SDS011;38223;50.940;4.034;2023-03-11T06:24:27;9.30;;;3.42;;
52266;SDS011;38223;50.940;4.034;2023-03-11T06:26:59;10.68;;;4.10;;
52266;SDS011;38223;50.940;4.034;2023-03-11T06:29:32;7.97;;;3.98;;
52266;SDS011;38223;50.940;4.034;2023-03-11T06:32:04;11.08;;;4.30;;
52266;SDS011;38223;50.940;4.034;2023-03-11T06:34:34;11.18;;;5.12;;
52266;SDS011;38223;50.940;4.034;2023-03-11T06:37:03;9.00;;;4.75;;
52266;SDS011;38223;50.940;4.034;2023-03-11T06:39:38;11.25;;;5.08;;
52266;SDS011;38223;50.940;4.034;2023-03-11T06:42:12;11.73;;;4.80;;
52266;SDS011;38223;50.940;4.034;2023-03-11T06:44:43;13.48;;;5.10;;
52266;SDS011;38223;50.940;4.034;2023-03-11T06:47:16;9.83;;;5.05;;
52266;SDS011;38223;50.940;4.034;2023-03-11T06:49:50;9.90;;;5.05;;
52266;SDS011;38223;50.940;4.034;2023-03-11T06:52:25;10.80;;;5.25;;
52266;SDS011;38223;50.940;4.034;2023-03-11T06:54:55;9.60;;;5.10;;
52266;SDS011;38223;50.940;4.034;2023-03-11T06:57:32;10.75;;;5.08;;
52266;SDS011;38223;50.940;4.034;2023-03-11T07:00:04;11.65;;;5.05;;
52266;SDS011;38223;50.940;4.034;2023-03-11T07:02:38;15.40;;;5.80;;
52266;SDS011;38223;50.940;4.034;2023-03-11T07:05:08;10.53;;;5.40;;
52266;SDS011;38223;50.940;4.034;2023-03-11T07:07:41;12.75;;;5.83;;
52266;SDS011;38223;50.940;4.034;2023-03-11T07:10:11;18.92;;;6.30;;
52266;SDS011;38223;50.940;4.034;2023-03-11T07:12:44;7.45;;;5.75;;
52266;SDS011;38223;50.940;4.034;2023-03-11T07:15:15;12.18;;;5.55;;
52266;SDS011;38223;50.940;4.034;2023-03-11T07:17:49;6.53;;;5.30;;
52266;SDS011;38223;50.940;4.034;2023-03-11T07:20:21;9.80;;;4.70;;
52266;SDS011;38223;50.940;4.034;2023-03-11T07:22:51;12.13;;;6.15;;
52266;SDS011;38223;50.940;4.034;2023-03-11T07:25:26;12.53;;;5.22;;
52266;SDS011;38223;50.940;4.034;2023-03-11T07:28:00;8.98;;;4.50;;
52266;SDS011;38223;50.940;4.034;2023-03-11T07:30:34;11.85;;;5.35;;
52266;SDS011;38223;50.940;4.034;2023-03-11T07:33:04;7.53;;;5.58;;
52266;SDS011;38223;50.940;4.034;2023-03-11T07:35:40;12.25;;;5.87;;
52266;SDS011;38223;50.940;4.034;2023-03-11T07:38:08;9.18;;;5.33;;
52266;SDS011;38223;50.940;4.034;2023-03-11T07:40:42;7.12;;;5.78;;
52266;SDS011;38223;50.940;4.034;2023-03-11T07:43:13;10.43;;;6.53;;
52266;SDS011;38223;50.940;4.034;2023-03-11T07:45:42;10.93;;;5.90;;
52266;SDS011;38223;50.940;4.034;2023-03-11T07:48:09;13.30;;;6.03;;
52266;SDS011;38223;50.940;4.034;2023-03-11T07:50:45;9.73;;;5.80;;
52266;SDS011;38223;50.940;4.034;2023-03-11T07:53:19;11.75;;;6.40;;
52266;SDS011;38223;50.940;4.034;2023-03-11T07:55:47;14.30;;;5.92;;
52266;SDS011;38223;50.940;4.034;2023-03-11T07:58:21;14.53;;;5.55;;
52266;SDS011;38223;50.940;4.034;2023-03-11T08:00:52;10.75;;;5.72;;
52266;SDS011;38223;50.940;4.034;2023-03-11T08:03:28;10.23;;;4.90;;
52266;SDS011;38223;50.940;4.034;2023-03-11T08:05:57;7.95;;;4.78;;
52266;SDS011;38223;50.940;4.034;2023-03-11T08:08:27;11.40;;;5.20;;
52266;SDS011;38223;50.940;4.034;2023-03-11T08:10:55;11.65;;;5.30;;
52266;SDS011;38223;50.940;4.034;2023-03-11T08:13:25;10.53;;;5.30;;
52266;SDS011;38223;50.940;4.034;2023-03-11T08:15:57;12.23;;;5.17;;
52266;SDS011;38223;50.940;4.034;2023-03-11T08:18:32;12.73;;;5.20;;
52266;SDS011;38223;50.940;4.034;2023-03-11T08:21:08;8.15;;;4.87;;
52266;SDS011;38223;50.940;4.034;2023-03-11T08:23:39;12.88;;;4.72;;
52266;SDS011;38223;50.940;4.034;2023-03-11T08:26:11;8.90;;;4.53;;
52266;SDS011;38223;50.940;4.034;2023-03-11T08:28:48;11.75;;;4.33;;
52266;SDS011;38223;50.940;4.034;2023-03-11T08:31:22;13.58;;;5.03;;
52266;SDS011;38223;50.940;4.034;2023-03-11T08:33:55;8.33;;;4.78;;
52266;SDS011;38223;50.940;4.034;2023-03-11T08:36:25;12.98;;;4.90;;
52266;SDS011;38223;50.940;4.034;2023-03-11T08:38:53;8.88;;;4.72;;
52266;SDS011;38223;50.940;4.034;2023-03-11T08:41:21;10.30;;;4.65;;
52266;SDS011;38223;50.940;4.034;2023-03-11T08:43:56;11.33;;;4.97;;
52266;SDS011;38223;50.940;4.034;2023-03-11T08:46:30;7.35;;;4.95;;
52266;SDS011;38223;50.940;4.034;2023-03-11T08:49:03;12.43;;;4.87;;
52266;SDS011;38223;50.940;4.034;2023-03-11T08:51:32;13.75;;;5.55;;
52266;SDS011;38223;50.940;4.034;2023-03-11T08:54:02;12.37;;;5.25;;
52266;SDS011;38223;50.940;4.034;2023-03-11T08:56:32;9.10;;;4.80;;
52266;SDS011;38223;50.940;4.034;2023-03-11T08:59:05;19.62;;;9.63;;
52266;SDS011;38223;50.940;4.034;2023-03-11T09:01:37;9.63;;;5.20;;
52266;SDS011;38223;50.940;4.034;2023-03-11T09:04:08;12.90;;;5.37;;
52266;SDS011;38223;50.940;4.034;2023-03-11T09:06:43;9.83;;;5.35;;
52266;SDS011;38223;50.940;4.034;2023-03-11T09:09:17;17.02;;;5.50;;
52266;SDS011;38223;50.940;4.034;2023-03-11T09:11:48;13.28;;;4.45;;
52266;SDS011;38223;50.940;4.034;2023-03-11T09:14:16;11.38;;;3.85;;
52266;SDS011;38223;50.940;4.034;2023-03-11T09:16:43;14.35;;;3.45;;
52266;SDS011;38223;50.940;4.034;2023-03-11T09:19:15;6.10;;;3.25;;
52266;SDS011;38223;50.940;4.034;2023-03-11T09:21:49;8.05;;;2.15;;
52266;SDS011;38223;50.940;4.034;2023-03-11T09:24:17;12.55;;;2.22;;
52266;SDS011;38223;50.940;4.034;2023-03-11T09:26:52;5.25;;;1.62;;
52266;SDS011;38223;50.940;4.034;2023-03-11T09:29:22;6.50;;;1.80;;
52266;SDS011;38223;50.940;4.034;2023-03-11T09:31:55;7.53;;;2.30;;
52266;SDS011;38223;50.940;4.034;2023-03-11T09:34:26;7.75;;;2.22;;
52266;SDS011;38223;50.940;4.034;2023-03-11T09:36:56;7.12;;;2.30;;
52266;SDS011;38223;50.940;4.034;2023-03-11T09:39:25;7.55;;;2.47;;
52266;SDS011;38223;50.940;4.034;2023-03-11T09:41:58;5.47;;;2.02;;
52266;SDS011;38223;50.940;4.034;2023-03-11T09:44:42;6.67;;;1.72;;
52266;SDS011;38223;50.940;4.034;2023-03-11T09:55:54;6.75;;;1.60;;
52266;SDS011;38223;50.940;4.034;2023-03-11T09:58:39;6.67;;;1.70;;
52266;SDS011;38223;50.940;4.034;2023-03-11T10:03:55;7.37;;;1.72;;
52266;SDS011;38223;50.940;4.034;2023-03-11T10:06:27;8.83;;;1.50;;
52266;SDS011;38223;50.940;4.034;2023-03-11T10:09:03;11.97;;;1.92;;
52266;SDS011;38223;50.940;4.034;2023-03-11T10:17:46;8.20;;;1.30;;
52266;SDS011;38223;50.940;4.034;2023-03-11T10:20:29;2.67;;;1.05;;
52266;SDS011;38223;50.940;4.034;2023-03-11T10:26:27;7.85;;;1.40;;
52266;SDS011;38223;50.940;4.034;2023-03-11T10:28:59;6.28;;;1.22;;
52266;SDS011;38223;50.940;4.034;2023-03-11T10:34:22;4.45;;;1.57;;
52266;SDS011;38223;50.940;4.034;2023-03-11T10:37:15;5.42;;;1.50;;
52266;SDS011;38223;50.940;4.034;2023-03-11T10:40:03;4.15;;;1.00;;
52266;SDS011;38223;50.940;4.034;2023-03-11T10:42:41;5.35;;;1.35;;
52266;SDS011;38223;50.940;4.034;2023-03-11T10:45:14;7.97;;;1.70;;
52266;SDS011;38223;50.940;4.034;2023-03-11T10:47:46;12.50;;;1.70;;
52266;SDS011;38223;50.940;4.034;2023-03-11T10:50:17;6.83;;;1.37;;
52266;SDS011;38223;50.940;4.034;2023-03-11T10:55:35;7.03;;;1.55;;
52266;SDS011;38223;50.940;4.034;2023-03-11T10:58:03;4.55;;;1.10;;
52266;SDS011;38223;50.940;4.034;2023-03-11T11:00:39;3.80;;;1.47;;
52266;SDS011;38223;50.940;4.034;2023-03-11T11:03:17;3.25;;;1.22;;
52266;SDS011;38223;50.940;4.034;2023-03-11T11:05:46;7.00;;;1.37;;
52266;SDS011;38223;50.940;4.034;2023-03-11T11:08:28;4.62;;;1.35;;
52266;SDS011;38223;50.940;4.034;2023-03-11T11:11:01;6.90;;;1.72;;
52266;SDS011;38223;50.940;4.034;2023-03-11T11:13:32;8.90;;;1.37;;
52266;SDS011;38223;50.940;4.034;2023-03-11T11:16:27;6.53;;;1.35;;
52266;SDS011;38223;50.940;4.034;2023-03-11T11:18:51;9.38;;;1.30;;
52266;SDS011;38223;50.940;4.034;2023-03-11T11:21:25;5.72;;;1.47;;
52266;SDS011;38223;50.940;4.034;2023-03-11T11:27:03;9.78;;;1.60;;
52266;SDS011;38223;50.940;4.034;2023-03-11T11:29:39;9.15;;;1.82;;
52266;SDS011;38223;50.940;4.034;2023-03-11T11:32:15;10.28;;;1.40;;
52266;SDS011;38223;50.940;4.034;2023-03-11T11:37:38;11.10;;;1.65;;
52266;SDS011;38223;50.940;4.034;2023-03-11T11:42:55;9.18;;;1.40;;
52266;SDS011;38223;50.940;4.034;2023-03-11T11:45:28;5.53;;;1.65;;
52266;SDS011;38223;50.940;4.034;2023-03-11T11:47:58;7.08;;;1.35;;
52266;SDS011;38223;50.940;4.034;2023-03-11T11:50:35;8.90;;;2.15;;
52266;SDS011;38223;50.940;4.034;2023-03-11T11:55:49;6.60;;;1.42;;
52266;SDS011;38223;50.940;4.034;2023-03-11T11:58:20;5.97;;;1.45;;
52266;SDS011;38223;50.940;4.034;2023-03-11T12:00:56;8.75;;;1.32;;
52266;SDS011;38223;50.940;4.034;2023-03-11T12:03:32;4.70;;;1.37;;
52266;SDS011;38223;50.940;4.034;2023-03-11T12:06:07;4.10;;;1.37;;
52266;SDS011;38223;50.940;4.034;2023-03-11T12:08:42;5.08;;;1.35;;
52266;SDS011;38223;50.940;4.034;2023-03-11T12:11:16;5.60;;;1.75;;
52266;SDS011;38223;50.940;4.034;2023-03-11T12:14:05;9.60;;;1.65;;
52266;SDS011;38223;50.940;4.034;2023-03-11T12:19:32;4.65;;;1.30;;
52266;SDS011;38223;50.940;4.034;2023-03-11T12:28:20;7.95;;;1.90;;
52266;SDS011;38223;50.940;4.034;2023-03-11T12:31:12;5.47;;;1.50;;
52266;SDS011;38223;50.940;4.034;2023-03-11T12:36:23;5.40;;;1.40;;
52266;SDS011;38223;50.940;4.034;2023-03-11T12:38:56;7.83;;;1.47;;
52266;SDS011;38223;50.940;4.034;2023-03-11T12:41:36;8.10;;;1.30;;
52266;SDS011;38223;50.940;4.034;2023-03-11T12:44:27;6.45;;;1.40;;
52266;SDS011;38223;50.940;4.034;2023-03-11T12:46:58;8.50;;;1.55;;
52266;SDS011;38223;50.940;4.034;2023-03-11T12:49:36;3.12;;;1.22;;
52266;SDS011;38223;50.940;4.034;2023-03-11T12:57:34;5.58;;;1.07;;
52266;SDS011;38223;50.940;4.034;2023-03-11T13:08:45;6.12;;;2.77;;
52266;SDS011;38223;50.940;4.034;2023-03-11T13:19:56;6.95;;;1.22;;
52266;SDS011;38223;50.940;4.034;2023-03-11T13:25:30;5.10;;;1.62;;
52266;SDS011;38223;50.940;4.034;2023-03-11T13:28:10;10.08;;;1.75;;
52266;SDS011;38223;50.940;4.034;2023-03-11T13:30:54;4.80;;;1.00;;
52266;SDS011;38223;50.940;4.034;2023-03-11T13:33:36;7.40;;;1.20;;
52266;SDS011;38223;50.940;4.034;2023-03-11T13:41:44;4.08;;;1.40;;
52266;SDS011;38223;50.940;4.034;2023-03-11T13:44:21;4.47;;;1.25;;
52266;SDS011;38223;50.940;4.034;2023-03-11T13:46:53;5.35;;;1.10;;
52266;SDS011;38223;50.940;4.034;2023-03-11T13:49:41;6.15;;;1.42;;
52266;SDS011;38223;50.940;4.034;2023-03-11T13:52:16;6.45;;;1.60;;
52266;SDS011;38223;50.940;4.034;2023-03-11T13:54:51;4.28;;;1.70;;
52266;SDS011;38223;50.940;4.034;2023-03-11T13:57:23;4.12;;;1.40;;
52266;SDS011;38223;50.940;4.034;2023-03-11T13:59:54;6.42;;;1.25;;
52266;SDS011;38223;50.940;4.034;2023-03-11T14:02:24;6.27;;;1.47;;
52266;SDS011;38223;50.940;4.034;2023-03-11T14:04:58;5.60;;;1.30;;
52266;SDS011;38223;50.940;4.034;2023-03-11T14:07:35;4.47;;;1.20;;
52266;SDS011;38223;50.940;4.034;2023-03-11T14:10:24;5.92;;;1.52;;
52266;SDS011;38223;50.940;4.034;2023-03-11T14:12:43;8.70;;;1.72;;
52266;SDS011;38223;50.940;4.034;2023-03-11T14:15:15;6.58;;;1.52;;
52266;SDS011;38223;50.940;4.034;2023-03-11T14:17:51;2.45;;;1.10;;
52266;SDS011;38223;50.940;4.034;2023-03-11T14:20:24;3.75;;;1.30;;
52266;SDS011;38223;50.940;4.034;2023-03-11T14:22:53;3.85;;;1.20;;
52266;SDS011;38223;50.940;4.034;2023-03-11T14:25:31;8.53;;;1.42;;
52266;SDS011;38223;50.940;4.034;2023-03-11T14:28:00;2.55;;;1.20;;
52266;SDS011;38223;50.940;4.034;2023-03-11T14:30:33;3.95;;;1.32;;
52266;SDS011;38223;50.940;4.034;2023-03-11T14:33:19;2.98;;;1.42;;
52266;SDS011;38223;50.940;4.034;2023-03-11T14:35:54;4.55;;;1.10;;
52266;SDS011;38223;50.940;4.034;2023-03-11T14:38:27;4.42;;;1.12;;
52266;SDS011;38223;50.940;4.034;2023-03-11T14:40:58;2.77;;;1.30;;
52266;SDS011;38223;50.940;4.034;2023-03-11T14:43:28;4.28;;;1.40;;
52266;SDS011;38223;50.940;4.034;2023-03-11T14:46:00;3.50;;;1.40;;
52266;SDS011;38223;50.940;4.034;2023-03-11T14:48:36;4.75;;;1.27;;
52266;SDS011;38223;50.940;4.034;2023-03-11T14:51:16;6.42;;;1.17;;
52266;SDS011;38223;50.940;4.034;2023-03-11T14:53:48;3.17;;;1.15;;
52266;SDS011;38223;50.940;4.034;2023-03-11T14:56:17;3.60;;;1.00;;
52266;SDS011;38223;50.940;4.034;2023-03-11T14:59:13;4.42;;;1.12;;
52266;SDS011;38223;50.940;4.034;2023-03-11T15:01:27;3.67;;;1.22;;
52266;SDS011;38223;50.940;4.034;2023-03-11T15:06:31;3.47;;;0.90;;
52266;SDS011;38223;50.940;4.034;2023-03-11T15:09:04;4.95;;;1.10;;
52266;SDS011;38223;50.940;4.034;2023-03-11T15:11:54;3.98;;;1.00;;
52266;SDS011;38223;50.940;4.034;2023-03-11T15:14:33;5.75;;;0.80;;
52266;SDS011;38223;50.940;4.034;2023-03-11T15:17:12;4.20;;;1.00;;
52266;SDS011;38223;50.940;4.034;2023-03-11T15:19:45;4.20;;;1.00;;
52266;SDS011;38223;50.940;4.034;2023-03-11T15:22:24;4.97;;;1.10;;
52266;SDS011;38223;50.940;4.034;2023-03-11T15:24:58;4.90;;;1.02;;
52266;SDS011;38223;50.940;4.034;2023-03-11T15:27:30;3.65;;;1.42;;
52266;SDS011;38223;50.940;4.034;2023-03-11T15:30:04;5.03;;;0.80;;
52266;SDS011;38223;50.940;4.034;2023-03-11T15:32:46;3.50;;;0.90;;
52266;SDS011;38223;50.940;4.034;2023-03-11T15:35:18;3.83;;;1.65;;
52266;SDS011;38223;50.940;4.034;2023-03-11T15:40:51;4.17;;;1.12;;
52266;SDS011;38223;50.940;4.034;2023-03-11T15:43:26;5.12;;;1.72;;
52266;SDS011;38223;50.940;4.034;2023-03-11T15:45:55;3.67;;;0.90;;
52266;SDS011;38223;50.940;4.034;2023-03-11T15:48:24;5.75;;;1.00;;
52266;SDS011;38223;50.940;4.034;2023-03-11T15:50:56;2.92;;;0.90;;
52266;SDS011;38223;50.940;4.034;2023-03-11T15:53:29;4.70;;;1.05;;
52266;SDS011;38223;50.940;4.034;2023-03-11T15:55:57;3.45;;;1.55;;
52266;SDS011;38223;50.940;4.034;2023-03-11T15:58:30;4.37;;;1.10;;
52266;SDS011;38223;50.940;4.034;2023-03-11T16:01:03;5.87;;;1.90;;
52266;SDS011;38223;50.940;4.034;2023-03-11T16:03:37;4.47;;;1.00;;
52266;SDS011;38223;50.940;4.034;2023-03-11T16:06:07;5.50;;;1.35;;
52266;SDS011;38223;50.940;4.034;2023-03-11T16:08:35;4.00;;;1.25;;
52266;SDS011;38223;50.940;4.034;2023-03-11T16:11:04;3.55;;;1.40;;
52266;SDS011;38223;50.940;4.034;2023-03-11T16:13:36;5.00;;;1.57;;
52266;SDS011;38223;50.940;4.034;2023-03-11T16:16:04;5.62;;;1.30;;
52266;SDS011;38223;50.940;4.034;2023-03-11T16:18:32;4.33;;;1.00;;
52266;SDS011;38223;50.940;4.034;2023-03-11T16:21:03;3.52;;;1.00;;
52266;SDS011;38223;50.940;4.034;2023-03-11T16:23:37;5.33;;;1.70;;
52266;SDS011;38223;50.940;4.034;2023-03-11T16:26:04;5.10;;;1.32;;
52266;SDS011;38223;50.940;4.034;2023-03-11T16:28:33;4.15;;;1.42;;
52266;SDS011;38223;50.940;4.034;2023-03-11T16:31:05;6.28;;;1.47;;
52266;SDS011;38223;50.940;4.034;2023-03-11T16:33:37;5.33;;;1.17;;
52266;SDS011;38223;50.940;4.034;2023-03-11T16:36:04;2.90;;;1.10;;
52266;SDS011;38223;50.940;4.034;2023-03-11T16:38:40;4.67;;;1.17;;
52266;SDS011;38223;50.940;4.034;2023-03-11T16:41:12;5.28;;;1.47;;
52266;SDS011;38223;50.940;4.034;2023-03-11T16:43:45;4.08;;;1.50;;
52266;SDS011;38223;50.940;4.034;2023-03-11T16:46:12;5.22;;;1.37;;
52266;SDS011;38223;50.940;4.034;2023-03-11T16:48:40;11.30;;;1.70;;
52266;SDS011;38223;50.940;4.034;2023-03-11T16:51:09;7.12;;;1.30;;
52266;SDS011;38223;50.940;4.034;2023-03-11T16:53:37;5.87;;;1.65;;
52266;SDS011;38223;50.940;4.034;2023-03-11T16:56:05;5.33;;;1.50;;
52266;SDS011;38223;50.940;4.034;2023-03-11T16:58:38;2.92;;;1.12;;
52266;SDS011;38223;50.940;4.034;2023-03-11T17:01:10;7.03;;;1.20;;
52266;SDS011;38223;50.940;4.034;2023-03-11T17:03:46;3.55;;;1.40;;
52266;SDS011;38223;50.940;4.034;2023-03-11T17:06:16;5.55;;;1.72;;
52266;SDS011;38223;50.940;4.034;2023-03-11T17:08:44;5.08;;;1.50;;
52266;SDS011;38223;50.940;4.034;2023-03-11T17:11:15;4.55;;;1.57;;